createdAt,value
2022-12-11T00:44:03.359Z,91.17
2022-12-11T00:49:06.962Z,87.98
2022-12-11T00:59:43.085Z,85.01
2022-12-11T01:05:09.209Z,87.31
2022-12-11T01:10:22.107Z,90.36
2022-12-11T01:15:29.627Z,90.87
2022-12-11T01:20:36.468Z,90.13
2022-12-11T01:25:48.176Z,89.02
2022-12-11T01:30:53.496Z,86.92
2022-12-11T01:35:57.139Z,84.56
2022-12-11T01:41:15.363Z,84.67
2022-12-11T01:46:20.707Z,85.18
2022-12-11T01:51:25.419Z,84.98
2022-12-11T01:56:31.872Z,85.18
2022-12-11T02:01:40.722Z,85.68
2022-12-11T02:06:56.761Z,86.98
2022-12-11T02:12:04.708Z,86.22
2022-12-11T02:17:18.129Z,85.65
2022-12-11T02:22:36.673Z,86.47
2022-12-11T02:27:46.843Z,88.65
2022-12-11T02:32:57.155Z,90.54
2022-12-11T02:38:05.134Z,90.44
2022-12-11T02:43:12.378Z,92.64
2022-12-11T02:48:18.821Z,90.25
2022-12-11T02:53:38.323Z,90.94
2022-12-11T02:58:47.333Z,90.64
2022-12-11T03:04:07.187Z,89.46
2022-12-11T03:09:10.797Z,86.57
2022-12-11T03:14:16.810Z,85.21
2022-12-11T03:19:29.600Z,84.30
2022-12-11T03:24:51.938Z,82.87
2022-12-11T03:29:59.175Z,83.65
2022-12-11T03:35:18.836Z,84.16
2022-12-11T03:40:25.505Z,86.34
2022-12-11T03:45:31.049Z,86.63
2022-12-11T03:50:37.518Z,87.88
2022-12-11T03:55:42.327Z,87.58
2022-12-11T04:00:46.058Z,86.88
2022-12-11T04:05:53.756Z,86.39
2022-12-11T04:11:27.117Z,84.31
2022-12-11T04:16:30.707Z,83.52
2022-12-11T04:21:39.415Z,83.69
2022-12-11T04:26:43.786Z,83.13
2022-12-11T04:31:47.977Z,81.34
2022-12-11T04:36:54.026Z,80.75
2022-12-11T04:41:57.652Z,78.90
2022-12-11T04:47:14.642Z,80.92
2022-12-11T04:52:38.056Z,82.25
2022-12-11T04:57:41.729Z,82.57
2022-12-11T05:02:45.367Z,85.00
2022-12-11T05:07:50.786Z,85.81
2022-12-11T05:12:54.437Z,88.53
2022-12-11T05:17:58.076Z,86.39
2022-12-11T05:23:04.453Z,86.06
2022-12-11T05:28:08.028Z,86.33
2022-12-11T05:33:11.664Z,86.41
2022-12-11T05:38:16.968Z,89.22
2022-12-11T05:43:20.556Z,89.78
2022-12-11T05:48:24.202Z,88.71
2022-12-11T05:53:29.567Z,89.88
2022-12-11T05:58:33.917Z,90.01
2022-12-11T06:03:37.674Z,88.55
2022-12-11T06:09:02.114Z,87.10
2022-12-11T06:14:05.805Z,88.32
2022-12-11T06:19:15.318Z,88.88
2022-12-11T06:24:34.551Z,88.99
2022-12-11T06:29:46.123Z,90.62
2022-12-11T06:34:49.698Z,91.47
2022-12-11T06:39:54.937Z,92.20
2022-12-11T06:45:09.006Z,89.99
2022-12-11T06:50:12.786Z,90.19
2022-12-11T06:55:31.365Z,90.50
2022-12-11T07:00:36.486Z,90.39
2022-12-11T07:05:40.154Z,91.05
2022-12-11T07:10:45.395Z,93.19
2022-12-11T07:15:49.017Z,91.93
2022-12-11T07:21:08.329Z,90.17
2022-12-11T07:26:15.330Z,89.87
2022-12-11T07:31:20.485Z,90.78
2022-12-11T07:36:40.837Z,92.79
2022-12-11T07:41:49.017Z,87.96
2022-12-11T07:46:52.702Z,87.70
2022-12-11T07:51:56.282Z,89.25
2022-12-11T07:57:01.565Z,90.03
2022-12-11T08:02:05.611Z,89.98
2022-12-11T08:07:14.612Z,91.13
2022-12-11T08:12:19.849Z,92.79
2022-12-11T08:17:28.789Z,91.95
2022-12-11T08:22:58.918Z,93.92
2022-12-11T08:28:04.691Z,95.34
2022-12-11T08:33:08.354Z,93.22
2022-12-11T08:38:11.965Z,93.89
2022-12-11T08:43:17.248Z,91.44
2022-12-11T08:48:20.833Z,91.00
2022-12-11T08:53:24.417Z,91.11
2022-12-11T08:58:29.706Z,90.52
2022-12-11T09:03:33.309Z,91.69
2022-12-11T09:08:36.943Z,91.58
2022-12-11T09:13:43.276Z,92.47
2022-12-11T09:18:46.572Z,93.41
2022-12-11T09:23:50.657Z,93.37
2022-12-11T09:28:55.959Z,93.04
2022-12-11T09:34:01.273Z,93.64
2022-12-11T09:39:06.758Z,94.13
2022-12-11T09:44:25.258Z,94.01
2022-12-11T09:49:35.866Z,93.27
2022-12-11T09:54:44.744Z,93.78
2022-12-11T10:00:12.000Z,94.78
2022-12-11T10:05:23.149Z,95.27
2022-12-11T10:10:38.302Z,91.18
2022-12-11T10:15:52.512Z,90.47
2022-12-11T10:20:56.512Z,90.52
2022-12-11T10:26:06.655Z,89.71
2022-12-11T10:31:18.431Z,91.40
2022-12-11T10:36:28.059Z,91.92
2022-12-11T10:41:38.663Z,92.07
2022-12-11T10:46:44.354Z,93.00
2022-12-11T10:51:47.992Z,92.96
2022-12-11T10:56:51.834Z,92.97
2022-12-11T11:01:58.104Z,91.86
2022-12-11T11:07:04.902Z,90.36
2022-12-11T11:12:20.817Z,92.31
2022-12-11T11:17:29.503Z,92.21
2022-12-11T11:22:41.449Z,92.59
2022-12-11T11:27:49.819Z,93.65
2022-12-11T11:32:57.228Z,93.33
2022-12-11T11:38:14.763Z,93.81
2022-12-11T11:43:24.766Z,95.05
2022-12-11T11:48:41.077Z,94.89
2022-12-11T11:53:49.381Z,94.73
2022-12-11T11:59:02.259Z,95.89
2022-12-11T12:04:07.626Z,95.89
2022-12-11T12:09:22.404Z,95.93
2022-12-11T12:20:05.276Z,95.53
2022-12-11T12:25:20.075Z,95.79
2022-12-11T12:30:24.197Z,96.15
2022-12-11T12:35:36.493Z,95.85
2022-12-11T12:40:52.920Z,95.81
2022-12-11T12:46:06.038Z,96.19
2022-12-11T12:51:14.120Z,97.04
2022-12-11T12:56:18.221Z,97.77
2022-12-11T13:01:23.656Z,96.31
2022-12-11T13:06:34.835Z,96.39
2022-12-11T13:11:38.451Z,96.06
2022-12-11T13:16:43.277Z,96.01
2022-12-11T13:21:58.802Z,95.59
2022-12-11T13:27:11.165Z,94.53
2022-12-11T13:32:24.946Z,93.43
2022-12-11T13:37:34.889Z,93.50
2022-12-11T13:42:48.775Z,91.84
2022-12-11T13:47:52.512Z,91.81
2022-12-11T13:52:59.555Z,92.76
2022-12-11T13:58:03.195Z,93.51
2022-12-11T14:03:07.675Z,92.70
2022-12-11T14:08:13.200Z,92.25
2022-12-11T14:13:22.789Z,91.65
2022-12-11T14:18:29.962Z,91.73
2022-12-11T14:23:36.118Z,92.67
2022-12-11T14:28:43.392Z,92.55
2022-12-11T14:33:52.537Z,93.21
2022-12-11T14:39:01.743Z,92.13
2022-12-11T14:44:08.392Z,93.23
2022-12-11T14:49:22.350Z,93.44
2022-12-11T14:54:32.550Z,92.04
2022-12-11T14:59:39.954Z,92.75
2022-12-11T15:04:43.615Z,93.00
2022-12-11T15:09:52.652Z,91.84
2022-12-11T15:14:58.441Z,92.75
2022-12-11T15:20:07.004Z,92.49
2022-12-11T15:25:21.658Z,93.75
2022-12-11T15:30:31.191Z,93.33
2022-12-11T15:35:34.847Z,92.97
2022-12-11T15:40:40.408Z,93.06
2022-12-11T15:45:44.071Z,92.01
2022-12-11T15:50:47.878Z,91.79
2022-12-11T15:55:53.642Z,91.93
2022-12-11T16:00:57.238Z,91.49
2022-12-11T16:06:00.835Z,89.38
2022-12-11T16:11:06.296Z,89.12
2022-12-11T16:16:09.998Z,88.59
2022-12-11T16:21:16.871Z,89.17
2022-12-11T16:26:27.405Z,88.99
2022-12-11T16:31:31.042Z,88.04
2022-12-11T16:36:34.673Z,87.65
2022-12-11T16:41:40.101Z,87.41
2022-12-11T16:46:43.779Z,84.75
2022-12-11T16:51:47.531Z,84.68
2022-12-11T16:56:52.793Z,84.50
2022-12-11T17:01:56.455Z,83.01
2022-12-11T17:07:00.780Z,80.68
2022-12-11T17:12:06.826Z,78.52
2022-12-11T17:17:10.564Z,80.23
2022-12-11T17:22:14.182Z,78.29
2022-12-11T17:27:19.512Z,80.69
2022-12-11T17:32:23.130Z,80.23
2022-12-11T17:37:26.758Z,77.47
2022-12-11T17:42:32.194Z,78.66
2022-12-11T17:47:35.827Z,81.01
2022-12-11T17:52:43.981Z,78.49
2022-12-11T17:57:49.665Z,78.01
2022-12-11T18:02:53.640Z,76.27
2022-12-11T18:07:58.142Z,76.83
2022-12-11T18:13:03.672Z,76.96
2022-12-11T18:18:08.029Z,77.12
2022-12-11T18:23:11.623Z,78.71
2022-12-11T18:28:16.935Z,79.30
2022-12-11T18:33:20.552Z,80.71
2022-12-11T18:38:24.218Z,82.35
2022-12-11T18:43:29.480Z,79.54
2022-12-11T18:48:33.152Z,77.55
2022-12-11T18:53:37.532Z,77.19
2022-12-11T18:58:43.731Z,70.66
2022-12-11T19:03:47.521Z,74.10
2022-12-11T19:08:51.456Z,72.51
2022-12-11T19:13:57.551Z,73.71
2022-12-11T19:19:02.547Z,74.07
2022-12-11T19:24:08.179Z,75.11
2022-12-11T19:29:19.870Z,72.84
2022-12-11T19:34:24.105Z,72.59
2022-12-11T19:39:27.756Z,71.19
2022-12-11T19:44:33.072Z,70.48
2022-12-11T19:49:36.684Z,74.20
2022-12-11T19:54:40.279Z,74.24
2022-12-11T19:59:45.505Z,74.40
2022-12-11T20:04:49.119Z,73.48
2022-12-11T20:09:52.741Z,73.01
2022-12-11T20:14:58.997Z,70.36
2022-12-11T20:20:01.928Z,72.23
2022-12-11T20:25:06.033Z,72.71
2022-12-11T20:30:14.241Z,71.25
2022-12-11T20:35:18.605Z,71.95
2022-12-11T20:40:22.291Z,73.53
2022-12-11T20:45:27.700Z,74.88
2022-12-11T20:50:31.384Z,77.08
2022-12-11T20:55:35.013Z,75.81
2022-12-11T21:00:40.969Z,74.71
2022-12-11T21:05:46.623Z,74.46
2022-12-11T21:10:50.223Z,72.51
2022-12-11T21:15:55.523Z,74.10
2022-12-11T21:20:59.891Z,71.93
2022-12-11T21:26:03.633Z,71.73
2022-12-11T21:31:13.805Z,70.53
2022-12-11T21:36:18.391Z,70.35
2022-12-11T21:41:23.732Z,70.38
2022-12-11T21:46:29.482Z,70.57
2022-12-11T21:51:39.377Z,68.87
2022-12-11T21:56:45.197Z,71.14
2022-12-11T22:01:50.561Z,70.44
2022-12-11T22:06:54.576Z,70.98
2022-12-11T22:11:59.015Z,74.34
2022-12-11T22:17:05.050Z,75.38
2022-12-11T22:22:08.690Z,76.11
2022-12-11T22:27:12.324Z,77.16
2022-12-11T22:32:17.607Z,77.86
2022-12-11T22:37:21.194Z,80.76
2022-12-11T22:42:24.828Z,85.02
2022-12-11T22:47:30.090Z,80.18
2022-12-11T22:52:33.846Z,81.48
2022-12-11T22:57:38.261Z,80.23
2022-12-11T23:02:43.647Z,79.72
2022-12-11T23:07:47.440Z,80.98
2022-12-11T23:12:51.467Z,80.02
2022-12-11T23:17:56.767Z,80.92
2022-12-11T23:23:00.447Z,80.30
2022-12-11T23:28:04.144Z,82.46
2022-12-11T23:33:09.441Z,82.13
2022-12-11T23:38:13.088Z,82.40
2022-12-11T23:43:16.736Z,84.44
2022-12-11T23:48:22.175Z,87.44
2022-12-11T23:53:25.778Z,84.59
2022-12-11T23:58:29.393Z,86.07
